• Join FlightAware (Why Join?)
  • Login
  • US Flag 
12:17AM EDT


 

Airport Tracker/Info


-or-


 

Live Flight TrackerFlight Track Log ✈ N53685 ✈ 29-May-2013 ✈ KLRD - 23R

Flight Track Log - Related Links

Times and Time Zones

All times are in EDT time to prevent confusion due to time zone crossing. See the N53685 flight status page for this flight to view local times or setup timezone preferences in your user account.

Time Position Orientation Groundspeed Altitude Reporting Facility
EDT Latitude Longitude Course Direction KTS MPH feet Rate Location/Type
04:48PM 27.5294 -99.4561 16° North 95 109 1,100  Level Houston Center
04:49PM 27.5319 -99.4231 85° East 103 119 1,800 540 Climbing Houston Center
04:50PM 27.5533 -99.3911 53° Northeast 119 137 2,300 480 Climbing Houston Center
04:51PM 27.5822 -99.3650 39° Northeast 129 148 2,800 600 Climbing Houston Center
04:52PM 27.6169 -99.3483 23° Northeast 133 153 3,600 420 Climbing Houston Center
04:53PM 27.8393 -99.3666 16° North  Level Estimated
04:54PM 27.8814 -99.3530 16° North  Level Estimated
04:54PM 27.6578 -99.3386 12° North 141 162 3,700  Level Houston Center
04:55PM 27.7058 -99.3211 18° North 147 169 3,600 -60 Descending Houston Center
04:56PM 27.7489 -99.3147 North 151 174 3,600  Level Houston Center
04:57PM 27.7917 -99.3072 North 153 176 3,600  Level Houston Center
04:58PM 27.8331 -99.3000 North 153 176 3,600  Level Houston Center
04:59PM 27.8736 -99.2911 11° North 150 173 3,600  Level Houston Center
05:00PM 27.9150 -99.2786 15° North 150 173 3,600  Level Houston Center
05:01PM 27.9564 -99.2675 13° North 152 175 3,600  Level Houston Center
05:02PM 28.0064 -99.2561 11° North 152 175 3,600  Level Houston Center
05:03PM 28.0469 -99.2442 15° North 151 174 3,600  Level Houston Center
05:04PM 28.0892 -99.2339 12° North 153 176 3,600  Level Houston Center
05:05PM 28.1306 -99.2231 13° North 153 176 3,600  Level Houston Center
05:06PM 28.1706 -99.2125 13° North 150 173 3,600  Level Houston Center
05:07PM 28.2194 -99.2017 11° North 149 171 3,600  Level Houston Center
05:08PM 28.2597 -99.1906 14° North 149 171 3,600  Level Houston Center
05:09PM 28.3000 -99.1803 13° North 149 171 3,600  Level Houston Center
05:10PM 28.3400 -99.1703 12° North 148 170 3,600  Level Houston Center
05:11PM 28.3806 -99.1611 11° North 148 170 3,600  Level Houston Center
05:12PM 28.4214 -99.1500 13° North 149 171 3,600  Level Houston Center
05:13PM 28.4708 -99.1372 13° North 150 173 3,600  Level Houston Center
05:14PM 28.5106 -99.1253 15° North 149 171 3,600  Level Houston Center
05:15PM 28.5497 -99.1117 17° North 148 170 3,600  Level Houston Center
05:16PM 28.5894 -99.0989 16° North 148 170 3,600  Level Houston Center
05:17PM 28.6300 -99.0856 16° North 149 171 3,600  Level Houston Center
05:18PM 28.6708 -99.0728 15° North 151 174 3,600  Level Houston Center
05:19PM 28.7192 -99.0578 15° North 151 174 3,600  Level Houston Center
05:20PM 28.7603 -99.0494 10° North 150 173 3,600  Level Houston Center
05:21PM 28.8014 -99.0361 16° North 152 175 3,600  Level Houston Center
05:22PM 28.8428 -99.0236 15° North 153 176 3,600  Level Houston Center
05:24PM 28.8831 -99.0097 17° North 152 175 3,600  Level Houston Center
05:25PM 28.9328 -99.0011 North 152 175 3,600 480 Level Houston Center
05:26PM 28.9675 -98.9931 11° North 152 175 4,600  Climbing Houston Center
05:27PM 29.0164 -98.9772 16° North 149 171 3,600 -540 Descending Houston Center
05:28PM 29.0561 -98.9683 11° North 146 168 3,600 -60 Level Houston Center
05:29PM 29.0964 -98.9575 13° North 140 161 3,500 -120 Descending Houston Center